首页
METAR-TAF:

METAR-TAF

机场 :

都灵, 意大利

纬度: 45-05-20N, 经度: 007-36-20E, 海拔: 288米

当前天气观测

该预报发布于1小时和12分钟前的11:50 UTC
风速2节,风向
温度 2°C
湿度 100%
气压 1006 hPa
能見度: 1000
阴天层高于500英尺
轻雾

METAR: LIMA 031150Z 01002KT 1000 BR OVC005 02/02 Q1006

时间: 14:02 (13:02 UTC)


TAF: 丢失

超过4000个机场的气象观测和天气预报(METAR&TAF报告)。

可查询的气象台以黄色和红色小点在地图上表示。

将鼠标移到小点上方,可查看气象台名称。

然后点击查看天气观测和预报。

如需切换地图:点击带黑十字的绿色按钮放大地图;点击带横线的绿色按钮缩小地图;或者点击绿色箭头查看邻近地区的地图。


METAR-TAF: